YBQ weather

Telegraph Harbour Seaplane Base
Thetis Island, British Columbia, Canada

Public forecast

Using degrees Celsius for public forecast. Weather courtesy of forecast.io.

Closest aviation weather report (METAR) to Telegraph Harbour Seaplane Base

Closest report is Nanaimo Airport, 9.6 nm (17.7 km) WNW. Retrieved 2020/08/06 13:23 UTC (27 minutes ago):

CYCD 061323Z 30003KT 250V350 5SM -RA BR FEW004 BKN015 BKN032 BKN090 16/15 A2979 RMK SF1SC4SC1AC1 CIG LWR N SLP088 DENSITY ALT 400FT

Closest aviation forecast (TAF) to Telegraph Harbour Seaplane Base

Forecast is more than 12 hours old.

Closest forecast is Nanaimo Airport, 9.6 nm (17.7 km) WNW. Retrieved 2020-08-06 00:00 UTC (14 hours ago):

TAF CYCD 052338Z 0600/0604 08008KT P6SM FEW040 BECMG 0602/0604 VRB03KT RMK NXT FCST WILL BE ISSUED AT 061445Z